Time;durP1;ratioP1;P1;durP2;ratioP2;P2;SDS_P1;SDS_P2;PMS_P1;PMS_P2;Temp;Humidity;BMP_temperature;BMP_pressure;BME280_temperature;BME280_humidity;BME280_pressure;Samples;Min_cycle;Max_cycle;Signal;HPM_P1;HPM_P2
2021/12/25 00:01:03;;;;;;;3.20;2.20;;;;;;;-1.48;100.00;98212.13;103698;1305;24307;-30
2021/12/25 00:03:29;;;;;;;7.70;4.20;;;;;;;-1.58;99.98;98213.56;103717;1314;24153;-29
2021/12/25 00:05:55;;;;;;;4.40;2.80;;;;;;;-1.69;99.99;98222.73;103730;1311;22455;-26
2021/12/25 00:08:22;;;;;;;5.80;2.90;;;;;;;-1.82;100.00;98233.97;103756;1314;24156;-27
2021/12/25 00:10:48;;;;;;;5.30;3.90;;;;;;;-1.75;100.00;98234.17;103882;1314;24290;-26
2021/12/25 00:13:15;;;;;;;6.10;3.30;;;;;;;-1.71;100.00;98237.13;103763;1312;24656;-26
2021/12/25 00:15:42;;;;;;;3.50;2.80;;;;;;;-1.65;100.00;98245.20;103744;1314;24177;-30
2021/12/25 00:18:09;;;;;;;4.00;3.10;;;;;;;-1.61;100.00;98247.63;103805;1305;24135;-30
2021/12/25 00:20:35;;;;;;;4.90;2.00;;;;;;;-1.67;99.76;98253.31;103722;1310;24304;-30
2021/12/25 00:23:04;;;;;;;2.40;1.30;;;;;;;-1.69;99.02;98259.97;103747;1311;24238;-28
2021/12/25 00:25:33;;;;;;;2.50;1.30;;;;;;;-1.86;97.20;98268.73;103734;1302;22449;-30
2021/12/25 00:28:17;;;;;;;6.20;1.70;;;;;;;-2.00;96.30;98276.06;103767;1310;24206;-25
2021/12/25 00:31:00;;;;;;;6.00;1.70;;;;;;;-2.00;96.10;98282.75;103746;1314;24143;-25
2021/12/25 00:35:56;;;;;;;2.00;1.00;;;;;;;-2.17;95.42;98312.05;103813;1316;22640;-30
2021/12/25 00:38:22;;;;;;;1.90;0.90;;;;;;;-2.26;95.61;98314.56;103829;1312;24160;-26
2021/12/25 00:40:48;;;;;;;1.00;0.50;;;;;;;-2.29;95.78;98323.48;103741;1310;22715;-26
2021/12/25 00:43:13;;;;;;;2.70;1.00;;;;;;;-2.14;96.16;98330.66;103746;1310;24193;-25
2021/12/25 00:45:39;;;;;;;3.90;1.10;;;;;;;-2.38;95.34;98330.97;103840;1312;24230;-30
2021/12/25 00:48:05;;;;;;;2.50;0.80;;;;;;;-2.30;94.78;98339.53;103822;1310;24144;-26
2021/12/25 00:50:32;;;;;;;2.70;1.30;;;;;;;-2.46;93.18;98350.41;103812;1304;24232;-26
2021/12/25 00:52:57;;;;;;;2.90;0.90;;;;;;;-2.37;93.58;98346.46;103828;1312;24153;-30
2021/12/25 00:55:23;;;;;;;1.20;0.90;;;;;;;-2.33;94.16;98357.52;103796;1312;24302;-26
2021/12/25 00:57:49;;;;;;;1.80;1.00;;;;;;;-2.30;93.91;98366.48;103816;1304;22475;-30
2021/12/25 01:00:16;;;;;;;4.70;1.20;;;;;;;-2.26;94.30;98379.28;103763;1314;24319;-26
2021/12/25 01:02:43;;;;;;;2.70;0.70;;;;;;;-2.35;92.34;98383.05;103821;1314;22442;-26
2021/12/25 01:05:09;;;;;;;0.90;0.50;;;;;;;-2.39;91.09;98384.17;103906;1314;23926;-25
2021/12/25 01:07:36;;;;;;;1.20;0.40;;;;;;;-2.31;93.13;98388.70;103848;1300;22732;-26
2021/12/25 01:10:03;;;;;;;1.00;0.70;;;;;;;-2.44;92.05;98392.86;103796;1312;24147;-30
2021/12/25 01:12:36;;;;;;;2.10;0.70;;;;;;;-2.47;91.19;98394.19;103684;1307;22552;-30
2021/12/25 01:15:05;;;;;;;2.00;0.60;;;;;;;-2.43;91.29;98399.23;103706;1314;24242;-25
2021/12/25 01:17:59;;;;;;;7.80;0.80;;;;;;;-2.60;90.53;98407.25;103819;1314;25265;-30
2021/12/25 01:20:37;;;;;;;2.20;1.00;;;;;;;-2.58;90.86;98416.23;103917;1312;22860;-26
2021/12/25 01:23:45;;;;;;;3.80;0.70;;;;;;;-2.59;91.08;98422.42;103805;1314;24145;-30
2021/12/25 01:26:49;;;;;;;2.30;0.80;;;;;;;-2.68;89.34;98426.52;103874;1314;24208;-30
2021/12/25 01:31:13;;;;;;;2.20;1.00;;;;;;;-2.76;89.34;98435.17;103787;1313;24347;-26
2021/12/25 01:48:49;;;;;;;1.70;0.50;;;;;;;-3.08;88.43;98462.64;103821;1316;23830;-30
2021/12/25 01:51:15;;;;;;;1.10;0.60;;;;;;;-3.11;86.83;98468.34;103833;1312;24122;-26
2021/12/25 01:53:40;;;;;;;1.20;0.60;;;;;;;-3.26;84.75;98478.41;103773;1310;24194;-26
2021/12/25 01:56:06;;;;;;;1.00;0.30;;;;;;;-3.38;82.98;98488.36;103783;1310;24106;-25
2021/12/25 01:58:33;;;;;;;10.00;0.30;;;;;;;-3.48;83.93;98505.52;103748;1314;24173;-26
2021/12/25 02:01:00;;;;;;;3.30;0.50;;;;;;;-3.38;84.89;98503.09;103814;1314;22540;-26
2021/12/25 02:03:27;;;;;;;1.10;0.40;;;;;;;-3.43;85.87;98505.60;103761;1314;24191;-30
2021/12/25 02:05:54;;;;;;;5.00;1.00;;;;;;;-3.60;82.70;98512.63;103800;1310;24374;-25
2021/12/25 02:08:20;;;;;;;1.00;0.40;;;;;;;-3.72;83.69;98518.14;103779;1313;24113;-26
2021/12/25 02:10:46;;;;;;;6.20;0.80;;;;;;;-3.75;84.22;98522.97;103736;1310;22477;-26
2021/12/25 02:13:12;;;;;;;1.00;0.40;;;;;;;-3.82;84.76;98533.02;103740;1310;24331;-26
2021/12/25 02:15:41;;;;;;;1.10;0.40;;;;;;;-3.98;84.28;98535.36;103748;1314;24774;-29
2021/12/25 02:18:13;;;;;;;7.90;0.40;;;;;;;-4.12;84.13;98539.34;103691;1310;24148;-25
2021/12/25 02:23:12;;;;;;;2.80;0.60;;;;;;;-4.05;84.63;98547.84;103673;1312;24121;-30
2021/12/25 02:25:38;;;;;;;1.10;0.50;;;;;;;-4.09;85.10;98549.73;103713;1312;24249;-25
2021/12/25 02:28:04;;;;;;;1.80;0.90;;;;;;;-4.12;85.78;98548.05;103701;1308;24177;-30
2021/12/25 02:30:30;;;;;;;1.60;0.70;;;;;;;-4.15;85.61;98545.33;103715;1313;24180;-26
2021/12/25 02:32:58;;;;;;;2.80;0.50;;;;;;;-4.14;86.69;98549.98;103742;1314;24159;-30
2021/12/25 02:35:25;;;;;;;3.80;1.30;;;;;;;-4.09;85.00;98559.66;103740;1314;22862;-30
2021/12/25 02:37:51;;;;;;;0.60;0.30;;;;;;;-4.19;84.99;98565.02;103749;1310;24216;-25
2021/12/25 02:40:17;;;;;;;2.10;0.60;;;;;;;-4.27;84.36;98567.11;103928;1314;24313;-26
2021/12/25 02:42:43;;;;;;;2.30;0.60;;;;;;;-4.27;85.37;98573.38;103984;1313;24318;-26
2021/12/25 02:45:16;;;;;;;0.20;0.10;;;;;;;-4.35;82.08;98578.19;104036;1310;24136;-29
2021/12/25 02:47:43;;;;;;;1.00;0.50;;;;;;;-4.58;81.51;98583.38;103696;1315;25802;-30
2021/12/25 02:50:10;;;;;;;3.00;0.60;;;;;;;-4.72;80.89;98593.20;103868;1313;24144;-26
2021/12/25 02:52:35;;;;;;;1.60;0.40;;;;;;;-4.74;81.59;98591.44;103772;1304;24242;-26
2021/12/25 02:55:01;;;;;;;0.60;0.20;;;;;;;-4.79;82.33;98601.08;103707;1314;24116;-30
2021/12/25 02:57:28;;;;;;;0.90;0.40;;;;;;;-4.79;83.36;98616.23;103827;1313;24172;-30
2021/12/25 02:59:54;;;;;;;1.30;0.50;;;;;;;-4.75;83.68;98615.05;103763;1304;22624;-29
2021/12/25 03:02:20;;;;;;;0.80;0.40;;;;;;;-4.81;82.64;98612.90;103777;1310;24303;-29
2021/12/25 03:04:47;;;;;;;0.40;0.10;;;;;;;-4.97;80.10;98611.89;103729;1314;24155;-30
2021/12/25 03:07:13;;;;;;;1.40;0.20;;;;;;;-4.98;82.14;98613.90;103726;1301;22491;-26
2021/12/25 03:09:40;;;;;;;1.30;0.70;;;;;;;-4.97;83.42;98619.20;103755;1304;24206;-26
2021/12/25 03:12:08;;;;;;;0.10;0.00;;;;;;;-4.98;83.64;98614.91;103729;1312;24183;-29
2021/12/25 03:14:39;;;;;;;1.60;0.50;;;;;;;-5.01;81.05;98610.44;103771;1316;22445;-25
2021/12/25 03:17:05;;;;;;;1.20;0.40;;;;;;;-5.05;82.54;98623.30;103619;1314;24151;-29
2021/12/25 03:19:33;;;;;;;1.00;0.40;;;;;;;-5.09;82.62;98635.88;103605;1312;24112;-25
2021/12/25 03:22:00;;;;;;;1.50;0.70;;;;;;;-5.20;81.88;98645.57;103739;1312;24192;-26
2021/12/25 03:24:26;;;;;;;6.30;0.80;;;;;;;-5.21;82.26;98640.05;103792;1310;24149;-26
2021/12/25 03:26:55;;;;;;;1.30;0.50;;;;;;;-5.32;81.26;98650.34;103731;1304;22971;-25
2021/12/25 03:29:21;;;;;;;1.40;0.40;;;;;;;-5.31;83.66;98664.35;103768;1311;24217;-25
2021/12/25 03:31:47;;;;;;;0.90;0.20;;;;;;;-5.27;83.82;98666.49;103698;1312;24207;-30
2021/12/25 03:34:13;;;;;;;0.70;0.30;;;;;;;-5.35;80.97;98674.28;103491;1307;22684;-27
2021/12/25 03:36:39;;;;;;;0.70;0.30;;;;;;;-5.47;79.14;98668.19;103810;1313;24226;-29
2021/12/25 03:39:06;;;;;;;1.60;0.40;;;;;;;-5.50;80.37;98665.61;103709;1313;22722;-27
2021/12/25 03:41:32;;;;;;;0.40;0.10;;;;;;;-5.55;78.88;98671.08;103736;1312;24132;-26
2021/12/25 03:44:00;;;;;;;1.80;0.30;;;;;;;-5.64;78.30;98672.72;103696;1310;24298;-30
2021/12/25 03:46:28;;;;;;;0.80;0.20;;;;;;;-5.69;78.73;98681.80;103778;1313;22568;-29
2021/12/25 03:58:45;;;;;;;1.10;0.30;;;;;;;-5.83;78.62;98682.13;103008;1312;938228;-25
2021/12/25 04:01:26;;;;;;;1.40;0.40;;;;;;;-5.90;79.11;98686.89;103713;1314;24172;-25
2021/12/25 04:06:22;;;;;;;0.40;0.10;;;;;;;-6.02;78.44;98701.55;103781;1312;24143;-31
2021/12/25 04:08:51;;;;;;;0.20;0.20;;;;;;;-6.09;78.84;98714.21;103745;1312;24274;-29
2021/12/25 04:11:27;;;;;;;0.90;0.30;;;;;;;-6.05;79.72;98707.61;103814;1305;24273;-29
2021/12/25 04:13:53;;;;;;;2.60;0.30;;;;;;;-5.99;79.78;98708.98;103771;1312;24120;-25
2021/12/25 04:16:19;;;;;;;1.70;0.10;;;;;;;-6.01;79.44;98710.33;103713;1312;24196;-30
2021/12/25 04:18:45;;;;;;;1.30;0.30;;;;;;;-6.05;80.37;98713.04;103606;1314;22523;-29
2021/12/25 04:21:11;;;;;;;0.90;0.20;;;;;;;-6.02;79.80;98710.76;103734;1312;24129;-25
2021/12/25 04:23:40;;;;;;;0.40;0.20;;;;;;;-6.10;79.57;98706.58;103960;1314;24301;-30
2021/12/25 04:26:07;;;;;;;0.20;0.10;;;;;;;-6.10;79.63;98717.20;103802;1308;24303;-25
2021/12/25 04:28:41;;;;;;;0.80;0.20;;;;;;;-6.10;80.35;98719.02;103723;1312;24258;-29
2021/12/25 05:03:43;;;;;;;3.00;0.70;;;;;;;-6.13;81.18;98778.58;103819;1316;22588;-25
2021/12/25 05:06:09;;;;;;;0.90;0.20;;;;;;;-6.19;81.08;98789.98;103677;1303;22442;-29
2021/12/25 05:08:35;;;;;;;1.40;0.40;;;;;;;-6.05;84.02;98790.13;103752;1302;22704;-29
2021/12/25 05:11:01;;;;;;;2.30;0.80;;;;;;;-5.99;83.52;98780.59;103760;1308;24124;-29
2021/12/25 05:13:27;;;;;;;2.20;0.60;;;;;;;-5.99;82.43;98789.85;103750;1314;24239;-30
2021/12/25 05:15:53;;;;;;;3.20;0.50;;;;;;;-6.11;80.78;98798.53;103771;1313;24187;-25
2021/12/25 05:18:19;;;;;;;6.00;0.90;;;;;;;-6.09;83.10;98792.95;103772;1312;24209;-27
2021/12/25 05:20:45;;;;;;;5.50;1.10;;;;;;;-6.05;83.40;98805.07;103853;1314;24278;-29
2021/12/25 05:23:11;;;;;;;3.20;0.60;;;;;;;-6.00;84.21;98813.64;103793;1312;24144;-28
2021/12/25 05:25:37;;;;;;;2.80;1.00;;;;;;;-6.05;82.39;98815.90;103837;1314;24121;-25
2021/12/25 05:28:03;;;;;;;3.90;0.70;;;;;;;-6.09;82.61;98818.59;103844;1312;24348;-36
2021/12/25 05:30:29;;;;;;;1.10;0.60;;;;;;;-6.06;82.09;98819.79;103708;1312;24132;-25
2021/12/25 05:32:55;;;;;;;1.70;0.80;;;;;;;-6.05;82.84;98821.98;103757;1314;22447;-29
2021/12/25 05:35:21;;;;;;;1.70;0.60;;;;;;;-5.98;84.29;98829.15;103725;1314;24262;-25
2021/12/25 05:37:47;;;;;;;5.40;0.70;;;;;;;-5.99;83.36;98829.94;103721;1312;22772;-29
2021/12/25 05:40:13;;;;;;;3.90;0.60;;;;;;;-6.10;82.38;98838.50;103774;1313;24148;-25
2021/12/25 05:42:39;;;;;;;2.40;0.30;;;;;;;-6.10;84.05;98839.42;103706;1314;24319;-30
2021/12/25 05:45:06;;;;;;;0.80;0.50;;;;;;;-6.01;85.42;98840.36;103674;1312;24153;-29
2021/12/25 05:47:32;;;;;;;5.70;0.40;;;;;;;-5.96;86.17;98847.66;103773;1312;24285;-29
2021/12/25 05:49:58;;;;;;;1.00;0.30;;;;;;;-5.94;86.16;98849.94;103634;1313;24392;-29
2021/12/25 05:52:24;;;;;;;13.50;0.80;;;;;;;-5.88;86.53;98847.05;103707;1314;24196;-29
2021/12/25 05:54:50;;;;;;;1.90;1.00;;;;;;;-5.95;84.98;98850.55;103491;1314;22533;-29
2021/12/25 05:57:16;;;;;;;1.20;0.30;;;;;;;-5.97;85.94;98850.36;103674;1311;24239;-28
2021/12/25 05:59:42;;;;;;;3.50;0.60;;;;;;;-6.07;85.18;98844.77;103719;1312;24183;-25
2021/12/25 06:02:07;;;;;;;0.50;0.20;;;;;;;-6.13;85.35;98849.16;103709;1312;24217;-25
2021/12/25 06:04:34;;;;;;;0.90;0.40;;;;;;;-6.18;84.66;98855.26;103496;1314;24397;-25
2021/12/25 06:07:01;;;;;;;2.60;0.70;;;;;;;-6.18;86.63;98860.47;103750;1313;24210;-29
2021/12/25 06:09:27;;;;;;;3.10;1.20;;;;;;;-6.26;86.49;98869.89;103689;1312;24180;-25
2021/12/25 06:11:53;;;;;;;2.10;0.50;;;;;;;-6.23;87.01;98873.17;103690;1312;24238;-26
2021/12/25 06:14:21;;;;;;;1.50;0.30;;;;;;;-6.23;86.87;98871.31;103658;1315;24121;-29
2021/12/25 06:16:47;;;;;;;6.90;0.50;;;;;;;-6.37;84.98;98869.76;103714;1312;24156;-25
2021/12/25 06:19:14;;;;;;;6.10;0.50;;;;;;;-6.48;83.42;98861.11;103780;1312;24371;-26
2021/12/25 06:21:39;;;;;;;1.60;0.20;;;;;;;-6.57;84.22;98866.08;103721;1313;22442;-25
2021/12/25 06:24:06;;;;;;;3.00;0.50;;;;;;;-6.64;84.29;98870.89;103710;1312;24144;-26
2021/12/25 06:26:32;;;;;;;5.10;0.40;;;;;;;-6.55;85.82;98872.03;103727;1312;24333;-29
2021/12/25 06:28:59;;;;;;;0.60;0.20;;;;;;;-6.43;87.04;98869.52;103677;1308;24212;-25
2021/12/25 06:31:25;;;;;;;1.20;0.60;;;;;;;-6.44;86.19;98878.45;103703;1314;24256;-25
2021/12/25 06:33:51;;;;;;;1.50;0.50;;;;;;;-6.56;85.15;98872.83;103702;1313;24262;-30
2021/12/25 06:36:17;;;;;;;1.40;0.50;;;;;;;-6.59;85.65;98874.73;103720;1312;25809;-29
2021/12/25 06:38:43;;;;;;;7.00;1.10;;;;;;;-6.65;86.08;98877.05;103746;1302;22456;-29
2021/12/25 06:41:12;;;;;;;5.60;0.90;;;;;;;-6.72;86.45;98879.23;103727;1314;24196;-25
2021/12/25 06:43:39;;;;;;;1.30;0.40;;;;;;;-6.75;85.75;98882.04;103718;1312;24121;-25
2021/12/25 06:46:05;;;;;;;5.20;0.30;;;;;;;-6.75;86.05;98885.91;103675;1304;24121;-29
2021/12/25 06:48:31;;;;;;;1.20;0.40;;;;;;;-6.71;86.27;98891.01;103743;1311;24292;-25
2021/12/25 06:50:57;;;;;;;3.90;0.80;;;;;;;-6.79;86.07;98886.66;103735;1316;24148;-29
2021/12/25 06:53:23;;;;;;;16.10;1.10;;;;;;;-6.85;86.36;98895.23;103714;1294;24292;-25
2021/12/25 06:55:49;;;;;;;1.00;0.30;;;;;;;-6.90;86.43;98902.89;103698;1312;24228;-30
2021/12/25 06:58:15;;;;;;;1.40;0.30;;;;;;;-6.96;86.26;98903.93;103706;1314;24159;-23
2021/12/25 07:00:41;;;;;;;1.50;0.50;;;;;;;-6.95;86.97;98915.55;103684;1312;24152;-24
2021/12/25 07:03:08;;;;;;;1.80;0.50;;;;;;;-6.92;87.94;98915.69;103733;1312;22722;-24
2021/12/25 07:05:34;;;;;;;4.50;0.60;;;;;;;-6.91;87.40;98917.89;103755;1312;24255;-28
2021/12/25 07:08:00;;;;;;;1.10;0.90;;;;;;;-6.89;87.38;98920.41;103720;1312;24206;-26
2021/12/25 07:10:26;;;;;;;1.70;0.60;;;;;;;-6.84;87.76;98917.27;103533;1312;24159;-23
2021/12/25 07:12:54;;;;;;;0.80;0.40;;;;;;;-6.82;87.29;98917.50;103707;1316;24153;-24
2021/12/25 07:15:19;;;;;;;0.90;0.50;;;;;;;-6.93;85.75;98917.70;103558;1314;22439;-28
2021/12/25 07:17:45;;;;;;;3.60;1.00;;;;;;;-7.03;85.61;98920.58;103738;1302;22776;-25
2021/12/25 07:20:12;;;;;;;1.80;0.60;;;;;;;-7.00;87.26;98923.17;103662;1314;23777;-24
2021/12/25 07:22:38;;;;;;;4.10;0.70;;;;;;;-6.90;88.20;98926.73;103704;1314;24276;-29
2021/12/25 07:25:04;;;;;;;2.00;0.40;;;;;;;-6.84;88.54;98924.79;103649;1312;24209;-28
2021/12/25 07:27:31;;;;;;;3.10;0.70;;;;;;;-6.81;88.02;98928.60;103546;1312;24145;-26
2021/12/25 07:29:56;;;;;;;0.90;0.30;;;;;;;-6.78;87.77;98926.14;103733;1313;24127;-25
2021/12/25 07:32:22;;;;;;;1.80;0.60;;;;;;;-6.87;86.64;98931.39;103771;1314;22606;-30
2021/12/25 07:34:50;;;;;;;2.50;0.60;;;;;;;-6.94;86.07;98931.48;103731;1312;24147;-24
2021/12/25 07:37:17;;;;;;;3.50;0.60;;;;;;;-6.90;87.05;98935.24;103901;1312;24155;-26
2021/12/25 07:39:43;;;;;;;8.90;0.90;;;;;;;-6.93;87.25;98931.43;103868;1314;24256;-29
2021/12/25 07:42:09;;;;;;;5.30;1.90;;;;;;;-6.86;87.66;98936.54;103437;1308;24261;-25
2021/12/25 07:44:35;;;;;;;6.30;2.20;;;;;;;-6.87;87.25;98937.80;103709;1313;24132;-29
2021/12/25 07:47:02;;;;;;;11.80;1.70;;;;;;;-6.84;87.95;98938.52;103761;1312;24262;-29
2021/12/25 07:49:28;;;;;;;5.00;1.90;;;;;;;-6.73;89.07;98939.57;103705;1310;24284;-25
2021/12/25 07:51:54;;;;;;;9.10;1.70;;;;;;;-6.66;89.12;98939.29;103719;1316;24271;-25
2021/12/25 07:54:20;;;;;;;7.70;1.80;;;;;;;-6.67;87.90;98945.09;103693;1305;24146;-25
2021/12/25 07:56:47;;;;;;;3.60;1.80;;;;;;;-6.73;87.28;98944.93;103693;1314;24194;-25
2021/12/25 07:59:13;;;;;;;14.70;2.00;;;;;;;-6.73;87.47;98945.48;103695;1313;24177;-29
2021/12/25 08:01:39;;;;;;;4.70;2.30;;;;;;;-6.64;88.62;98942.98;103762;1310;22473;-25
2021/12/25 08:04:05;;;;;;;3.60;2.10;;;;;;;-6.59;88.08;98944.70;103738;1316;24162;-29
2021/12/25 08:06:32;;;;;;;4.40;1.60;;;;;;;-6.51;87.85;98942.85;103694;1315;24153;-29
2021/12/25 08:09:00;;;;;;;5.30;2.00;;;;;;;-6.28;89.53;98944.06;103690;1312;24322;-26
2021/12/25 08:11:27;;;;;;;5.90;2.10;;;;;;;-6.19;88.38;98938.98;103692;1312;24261;-29
2021/12/25 08:13:54;;;;;;;12.60;2.60;;;;;;;-6.04;89.64;98948.44;103670;1314;24263;-25
2021/12/25 08:16:20;;;;;;;10.40;2.80;;;;;;;-6.07;88.51;98950.15;103642;1305;24162;-29
2021/12/25 08:18:46;;;;;;;14.50;5.90;;;;;;;-6.01;89.11;98959.54;103751;1316;24158;-25
2021/12/25 08:21:13;;;;;;;12.10;5.70;;;;;;;-5.97;89.22;98956.13;103746;1305;24146;-26
2021/12/25 08:23:39;;;;;;;18.00;5.90;;;;;;;-5.91;89.80;98965.29;103748;1313;24144;-29
2021/12/25 08:26:06;;;;;;;9.70;3.10;;;;;;;-6.00;88.67;98967.66;103721;1313;24217;-29
2021/12/25 08:28:32;;;;;;;5.80;2.80;;;;;;;-6.19;86.83;98967.87;103487;1308;24244;-29
2021/12/25 08:30:58;;;;;;;9.90;4.80;;;;;;;-6.22;87.24;98972.27;103731;1312;22601;-29
2021/12/25 08:33:24;;;;;;;15.60;4.20;;;;;;;-6.26;87.00;98972.71;103716;1312;24237;-25
2021/12/25 08:35:50;;;;;;;11.50;5.50;;;;;;;-6.34;86.34;98973.95;103715;1314;24151;-25
2021/12/25 08:38:16;;;;;;;14.90;5.70;;;;;;;-6.20;88.32;98982.58;103729;1316;22442;-28
2021/12/25 08:40:43;;;;;;;13.70;4.50;;;;;;;-5.65;89.15;98984.08;103672;1307;22570;-29
2021/12/25 08:43:09;;;;;;;8.50;2.50;;;;;;;-5.27;85.37;98981.69;103704;1311;22734;-29
2021/12/25 08:48:07;;;;;;;11.60;3.20;;;;;;;-4.83;80.38;98985.75;103773;1312;24463;-30
2021/12/25 08:50:33;;;;;;;10.60;3.10;;;;;;;-4.70;79.92;98977.62;103718;1310;24223;-27
2021/12/25 08:52:59;;;;;;;12.30;4.20;;;;;;;-4.19;84.35;98980.21;103715;1314;24229;-28
2021/12/25 08:55:25;;;;;;;10.20;3.90;;;;;;;-3.78;85.10;98978.37;103695;1314;22461;-30
2021/12/25 08:57:51;;;;;;;6.20;2.00;;;;;;;-3.38;85.03;98979.98;103703;1314;24181;-27
2021/12/25 09:00:19;;;;;;;4.90;2.30;;;;;;;-3.31;80.29;98981.02;103672;1314;24283;-31
2021/12/25 09:02:47;;;;;;;8.20;3.50;;;;;;;-3.07;84.33;98986.52;103763;1314;24301;-27
2021/12/25 09:05:12;;;;;;;7.60;1.40;;;;;;;-3.33;82.86;98983.12;103682;1314;24157;-26
2021/12/25 09:07:38;;;;;;;11.60;2.30;;;;;;;-3.88;77.38;98986.27;103777;1311;22724;-27
2021/12/25 09:10:04;;;;;;;2.60;1.00;;;;;;;-3.79;80.59;98988.59;103548;1312;24229;-31
2021/12/25 09:12:33;;;;;;;8.40;1.40;;;;;;;-3.45;84.14;98994.33;103705;1302;22777;-26
2021/12/25 09:14:59;;;;;;;10.30;1.30;;;;;;;-3.07;82.20;98988.05;103640;1314;23899;-31
2021/12/25 09:17:25;;;;;;;4.00;0.90;;;;;;;-2.80;80.49;98988.10;103706;1304;24408;-27
2021/12/25 09:19:51;;;;;;;2.00;0.70;;;;;;;-2.66;82.21;98989.93;103729;1312;24144;-26
2021/12/25 09:22:17;;;;;;;4.80;1.10;;;;;;;-2.68;81.62;98992.71;103696;1304;24148;-29
2021/12/25 09:24:43;;;;;;;5.40;0.90;;;;;;;-2.50;82.46;98991.09;103720;1313;24268;-31
2021/12/25 09:27:09;;;;;;;4.30;1.00;;;;;;;-2.69;75.08;98988.73;103675;1314;22462;-27
2021/12/25 09:29:35;;;;;;;1.70;0.70;;;;;;;-2.62;77.09;98990.16;103670;1314;24121;-31
2021/12/25 09:32:01;;;;;;;5.60;0.80;;;;;;;-2.59;74.66;98990.58;103706;1312;24279;-26
2021/12/25 09:34:27;;;;;;;1.40;0.70;;;;;;;-2.88;70.46;98993.74;103680;1314;24226;-31
2021/12/25 09:36:53;;;;;;;2.30;0.60;;;;;;;-2.53;77.35;98993.46;103723;1304;24169;-25
2021/12/25 09:39:19;;;;;;;0.90;0.40;;;;;;;-2.64;72.49;98995.70;103700;1304;24384;-29
2021/12/25 09:41:45;;;;;;;2.50;0.50;;;;;;;-2.46;72.00;98999.70;103740;1312;24162;-30
2021/12/25 09:44:11;;;;;;;3.70;0.80;;;;;;;-2.47;69.48;99002.10;103718;1313;24195;-32
2021/12/25 09:46:37;;;;;;;1.70;0.60;;;;;;;-2.27;73.77;99000.77;103509;1310;24325;-30
2021/12/25 09:49:03;;;;;;;2.30;0.80;;;;;;;-2.28;71.63;98996.29;103737;1312;24195;-30
2021/12/25 09:51:29;;;;;;;13.00;4.70;;;;;;;-1.97;75.15;98998.50;103538;1316;24154;-31
2021/12/25 09:53:59;;;;;;;4.70;1.40;;;;;;;-1.50;78.88;98994.95;103616;1312;24339;-30
2021/12/25 09:56:26;;;;;;;6.10;2.00;;;;;;;-1.51;77.35;98997.30;103706;1313;24173;-31
2021/12/25 09:58:52;;;;;;;4.20;2.10;;;;;;;-1.36;78.60;98994.41;103633;1313;22562;-26
2021/12/25 10:01:25;;;;;;;1.60;1.10;;;;;;;-1.59;78.04;98994.32;103689;1313;22588;-31
2021/12/25 10:03:52;;;;;;;3.00;1.20;;;;;;;-1.86;73.36;98996.52;103738;1314;23904;-26
2021/12/25 10:06:26;;;;;;;5.20;1.30;;;;;;;-1.46;75.91;98994.59;103771;1312;22442;-27
2021/12/25 10:08:52;;;;;;;3.60;2.20;;;;;;;-1.02;78.30;98993.96;103759;1314;22450;-31
2021/12/25 10:11:18;;;;;;;6.60;1.60;;;;;;;-1.08;72.59;98997.44;103812;1305;22479;-26
2021/12/25 10:13:45;;;;;;;8.40;1.10;;;;;;;-1.04;71.55;99001.89;103785;1316;24207;-31
2021/12/25 10:16:17;;;;;;;1.80;0.50;;;;;;;-0.66;74.67;99000.98;103850;1310;24135;-30
2021/12/25 10:18:44;;;;;;;1.70;0.90;;;;;;;-0.84;70.55;98997.66;103727;1311;23202;-26
2021/12/25 10:21:26;;;;;;;3.50;1.50;;;;;;;-0.11;75.87;98986.48;103700;1316;22748;-27
2021/12/25 10:23:58;;;;;;;8.40;3.20;;;;;;;-0.49;69.88;98989.14;103697;1314;24272;-31
2021/12/25 10:26:24;;;;;;;10.10;2.50;;;;;;;-0.34;72.66;98986.19;103706;1312;24141;-26
2021/12/25 10:28:50;;;;;;;2.20;1.10;;;;;;;-0.31;68.08;98991.05;103787;1314;24302;-26
2021/12/25 10:31:17;;;;;;;2.80;1.30;;;;;;;-0.18;69.99;98987.20;103723;1309;24144;-26
2021/12/25 10:33:47;;;;;;;2.40;1.00;;;;;;;-0.49;66.16;98989.88;103777;1310;24153;-27
2021/12/25 10:36:19;;;;;;;3.80;1.40;;;;;;;-0.33;68.41;98983.00;103746;1314;26075;-31
2021/12/25 10:38:58;;;;;;;5.30;1.90;;;;;;;0.14;73.40;98985.61;103905;1314;24029;-31
2021/12/25 10:41:24;;;;;;;4.10;1.80;;;;;;;0.41;67.38;98983.66;103751;1307;24298;-26
2021/12/25 10:43:53;;;;;;;6.30;2.00;;;;;;;0.89;70.94;98980.38;103792;1314;24135;-31
2021/12/25 10:46:19;;;;;;;2.50;1.20;;;;;;;1.21;70.85;98981.90;103799;1312;24206;-27
2021/12/25 10:48:45;;;;;;;4.10;1.50;;;;;;;1.41;70.21;98978.17;103892;1312;24121;-31
2021/12/25 10:51:17;;;;;;;6.50;2.10;;;;;;;1.84;76.35;98969.98;103916;1307;24274;-31
2021/12/25 10:53:43;;;;;;;2.50;1.30;;;;;;;1.45;63.18;98970.93;103796;1314;23899;-26
2021/12/25 10:56:12;;;;;;;2.10;1.10;;;;;;;0.54;62.91;98970.63;103866;1310;24411;-31
2021/12/25 10:58:38;;;;;;;3.90;1.10;;;;;;;-0.46;60.68;98973.73;103852;1301;23006;-26
2021/12/25 11:01:05;;;;;;;5.90;1.50;;;;;;;-1.11;63.64;98974.86;103789;1314;24149;-31
2021/12/25 11:03:35;;;;;;;3.70;1.10;;;;;;;-1.45;67.14;98976.22;103832;1314;22705;-30
2021/12/25 11:06:03;;;;;;;7.20;2.10;;;;;;;-1.78;66.28;98968.98;103804;1314;24187;-31
2021/12/25 11:08:31;;;;;;;11.40;2.60;;;;;;;-1.97;69.21;98969.77;103682;1314;22496;-26
2021/12/25 11:11:00;;;;;;;16.20;5.60;;;;;;;-1.79;68.00;98969.98;103682;1314;24120;-26
2021/12/25 11:13:31;;;;;;;54.20;14.10;;;;;;;-1.92;68.25;98976.14;103903;1314;22750;-26
2021/12/25 11:16:04;;;;;;;30.00;5.70;;;;;;;-2.01;65.74;98977.66;103992;1312;23929;-31
2021/12/25 11:18:31;;;;;;;6.00;2.90;;;;;;;-1.87;66.72;98972.61;103667;1314;24132;-30
2021/12/25 11:20:59;;;;;;;5.00;1.00;;;;;;;-1.62;68.24;98972.21;103949;1314;24204;-30
2021/12/25 11:23:25;;;;;;;5.20;1.40;;;;;;;-1.74;66.19;98970.25;103767;1313;24192;-30
2021/12/25 11:25:51;;;;;;;14.50;4.10;;;;;;;-1.58;69.09;98969.98;103806;1314;24283;-26
2021/12/25 11:28:18;;;;;;;4.60;1.70;;;;;;;-0.96;71.42;98966.54;103754;1311;24160;-26
2021/12/25 11:30:47;;;;;;;2.40;1.00;;;;;;;-0.41;65.66;98976.30;103899;1315;25294;-30
2021/12/25 11:33:13;;;;;;;6.00;0.80;;;;;;;-0.11;63.32;98981.54;103838;1316;22808;-30
2021/12/25 11:35:39;;;;;;;3.20;1.50;;;;;;;-0.43;64.21;98980.70;103694;1313;24144;-30
2021/12/25 11:38:07;;;;;;;9.40;2.70;;;;;;;-0.87;66.18;98983.88;103747;1315;22443;-26
2021/12/25 11:40:34;;;;;;;9.10;2.70;;;;;;;-1.04;67.26;98978.12;103947;1314;23869;-30
2021/12/25 11:43:04;;;;;;;2.90;1.00;;;;;;;-1.63;65.17;98982.34;103744;1313;24192;-25
2021/12/25 11:45:34;;;;;;;2.60;1.40;;;;;;;-1.87;66.57;98983.77;103718;1313;24125;-30
2021/12/25 11:48:03;;;;;;;8.00;1.80;;;;;;;-1.72;68.43;98979.61;103727;1311;22481;-26
2021/12/25 11:50:32;;;;;;;13.10;5.60;;;;;;;-1.51;69.35;98983.56;103719;1314;24248;-26
2021/12/25 11:53:04;;;;;;;3.10;1.30;;;;;;;-1.25;71.45;98982.42;103704;1312;24262;-26
2021/12/25 11:56:13;;;;;;;4.80;1.60;;;;;;;-1.30;70.19;98985.02;103703;1314;24241;-30
2021/12/25 11:58:36;;;;;;;3.30;1.30;;;;;;;-1.35;67.54;98982.95;103289;1310;577019;-26
2021/12/25 12:01:23;;;;;;;5.00;1.50;;;;;;;-1.72;71.38;98983.84;103685;1312;24116;-26
2021/12/25 12:03:54;;;;;;;3.50;1.30;;;;;;;-2.04;73.01;98981.88;103719;1304;24151;-30
2021/12/25 12:06:40;;;;;;;2.70;1.60;;;;;;;-2.38;70.50;98986.47;103688;1315;22850;-30
2021/12/25 12:09:10;;;;;;;20.60;7.00;;;;;;;-2.72;70.52;98989.92;103740;1314;24158;-25
2021/12/25 12:11:40;;;;;;;107.90;28.00;;;;;;;-3.02;69.23;98996.96;103728;1314;24213;-29
2021/12/25 12:14:10;;;;;;;23.70;8.10;;;;;;;-3.30;70.16;99001.59;103739;1314;23889;-30
2021/12/25 12:16:38;;;;;;;8.80;4.30;;;;;;;-3.55;70.69;99006.34;103690;1310;24213;-30
2021/12/25 12:19:04;;;;;;;7.80;4.50;;;;;;;-3.63;71.71;98998.88;103759;1307;24261;-25
2021/12/25 12:21:35;;;;;;;11.60;5.00;;;;;;;-3.67;72.03;99000.59;103712;1314;24124;-29
2021/12/25 12:24:23;;;;;;;8.60;2.30;;;;;;;-3.69;73.03;99004.11;103801;1312;22823;-25
2021/12/25 12:26:49;;;;;;;10.90;5.10;;;;;;;-3.62;73.62;99010.00;103722;1314;24231;-25
2021/12/25 12:29:23;;;;;;;24.30;4.30;;;;;;;-3.56;71.94;99012.70;103963;1314;24166;-29
2021/12/25 12:31:48;;;;;;;38.60;7.80;;;;;;;-3.42;71.65;99019.51;103828;1314;24210;-30
2021/12/25 12:34:31;;;;;;;65.60;18.70;;;;;;;-3.33;72.71;99014.98;103748;1301;22575;-26
2021/12/25 12:37:03;;;;;;;39.10;7.70;;;;;;;-2.94;73.98;99013.48;103765;1314;24346;-25